createdAt,value
2022-11-20T00:01:32.354Z,0.70
2022-11-20T00:04:01.085Z,0.70
2022-11-20T00:06:29.509Z,0.70
2022-11-20T00:08:59.811Z,0.60
2022-11-20T00:11:29.685Z,0.70
2022-11-20T00:25:21.462Z,0.70
2022-11-20T00:27:48.362Z,1.50
2022-11-20T00:30:15.455Z,1.30
2022-11-20T00:32:42.511Z,1.20
2022-11-20T00:35:09.653Z,1.10
2022-11-20T00:37:36.584Z,1.00
2022-11-20T00:40:03.852Z,1.00
2022-11-20T00:42:32.008Z,1.00
2022-11-20T00:44:58.974Z,1.00
2022-11-20T00:47:25.903Z,0.90
2022-11-20T00:49:52.826Z,0.80
2022-11-20T00:52:19.770Z,0.80
2022-11-20T00:54:46.710Z,0.80
2022-11-20T00:57:13.598Z,0.70
2022-11-20T00:59:40.500Z,0.70
2022-11-20T01:02:07.485Z,0.70
2022-11-20T01:04:34.471Z,0.70
2022-11-20T01:07:01.396Z,0.60
2022-11-20T01:09:28.316Z,0.60
2022-11-20T01:11:55.266Z,0.60
2022-11-20T01:14:22.159Z,0.60
2022-11-20T01:16:52.520Z,0.60
2022-11-20T01:19:23.783Z,0.60
2022-11-20T01:21:54.702Z,0.60
2022-11-20T01:24:23.574Z,0.60
2022-11-20T01:26:52.205Z,0.60
2022-11-20T01:29:25.451Z,0.60
2022-11-20T01:31:53.531Z,0.60
2022-11-20T01:34:23.306Z,0.60
2022-11-20T01:36:51.148Z,0.60
2022-11-20T01:39:22.694Z,0.60
2022-11-20T01:42:10.812Z,0.60
2022-11-20T01:44:50.984Z,0.60
2022-11-20T01:47:30.074Z,0.60
2022-11-20T01:50:24.132Z,0.60
2022-11-20T01:52:57.491Z,0.60
2022-11-20T01:55:31.965Z,0.70
2022-11-20T01:58:00.656Z,0.70
2022-11-20T02:00:27.791Z,0.70
2022-11-20T02:03:10.170Z,0.60
2022-11-20T02:05:50.466Z,0.60
2022-11-20T02:08:18.919Z,0.60
2022-11-20T02:10:45.936Z,0.70
2022-11-20T02:13:31.529Z,0.70
2022-11-20T02:15:58.752Z,0.70
2022-11-20T02:18:26.018Z,0.70
2022-11-20T02:21:02.998Z,0.80
2022-11-20T02:23:46.016Z,0.80
2022-11-20T02:26:17.966Z,0.70
2022-11-20T02:28:45.074Z,0.70
2022-11-20T02:31:11.974Z,0.70
2022-11-20T02:33:39.011Z,0.80
2022-11-20T02:36:06.575Z,0.80
2022-11-20T02:38:33.537Z,0.90
2022-11-20T02:41:00.495Z,0.90
2022-11-20T02:43:27.406Z,0.90
2022-11-20T02:45:54.408Z,0.90
2022-11-20T02:48:22.391Z,0.90
2022-11-20T02:50:51.443Z,0.90
2022-11-20T02:53:18.322Z,0.80
2022-11-20T02:55:45.221Z,0.80
2022-11-20T02:58:12.130Z,0.80
2022-11-20T03:00:42.228Z,0.80
2022-11-20T03:03:09.325Z,0.80
2022-11-20T03:05:36.230Z,0.70
2022-11-20T03:08:03.145Z,0.70
2022-11-20T03:10:30.081Z,0.70
2022-11-20T03:12:57.269Z,0.60
2022-11-20T03:15:25.045Z,0.50
2022-11-20T03:17:56.217Z,0.50
2022-11-20T03:20:24.007Z,0.50
2022-11-20T03:22:51.114Z,0.50
2022-11-20T03:25:18.014Z,0.40
2022-11-20T03:27:44.953Z,0.40
2022-11-20T03:30:12.420Z,0.40
2022-11-20T03:32:39.357Z,0.30
2022-11-20T03:35:07.044Z,0.30
2022-11-20T03:37:34.061Z,0.30
2022-11-20T03:40:00.994Z,0.30
2022-11-20T03:42:46.311Z,0.30
2022-11-20T03:45:18.923Z,0.30
2022-11-20T03:47:46.953Z,0.20
2022-11-20T03:50:14.990Z,0.20
2022-11-20T03:52:42.696Z,0.20
2022-11-20T03:55:09.759Z,0.20
2022-11-20T03:57:36.679Z,0.20
2022-11-20T04:00:06.231Z,0.30
2022-11-20T04:02:33.177Z,0.30
2022-11-20T04:16:25.138Z,0.40
2022-11-20T04:18:57.542Z,1.40
2022-11-20T04:21:26.156Z,1.20
2022-11-20T04:23:54.804Z,1.10
2022-11-20T04:26:24.861Z,1.00
2022-11-20T04:28:52.223Z,0.90
2022-11-20T04:31:28.564Z,0.90
2022-11-20T04:33:56.304Z,0.90
2022-11-20T04:36:28.435Z,0.80
2022-11-20T04:39:02.004Z,0.80
2022-11-20T04:41:33.467Z,0.70
2022-11-20T04:44:04.269Z,0.70
2022-11-20T04:46:38.830Z,0.70
2022-11-20T04:49:06.438Z,0.60
2022-11-20T04:51:34.261Z,0.70
2022-11-20T04:54:01.743Z,0.70
2022-11-20T04:56:28.865Z,0.70
2022-11-20T04:58:55.831Z,0.80
2022-11-20T05:01:25.396Z,0.70
2022-11-20T05:03:52.792Z,0.80
2022-11-20T05:06:22.180Z,0.80
2022-11-20T05:08:49.666Z,0.80
2022-11-20T05:11:20.947Z,0.80
2022-11-20T05:13:49.012Z,0.80
2022-11-20T05:16:23.189Z,0.70
2022-11-20T05:18:55.276Z,0.70
2022-11-20T05:21:22.838Z,0.80
2022-11-20T05:23:49.807Z,0.80
2022-11-20T05:26:20.743Z,0.80
2022-11-20T05:28:48.067Z,0.80
2022-11-20T05:31:27.155Z,0.80
2022-11-20T05:33:57.566Z,0.80
2022-11-20T05:36:24.899Z,0.80
2022-11-20T05:38:54.434Z,0.80
2022-11-20T05:41:23.776Z,0.80
2022-11-20T05:43:51.720Z,0.80
2022-11-20T05:46:27.776Z,0.80
2022-11-20T05:48:56.822Z,0.80
2022-11-20T05:51:24.922Z,0.70
2022-11-20T05:53:51.884Z,0.70
2022-11-20T05:56:21.929Z,0.60
2022-11-20T05:58:50.117Z,0.70
2022-11-20T06:01:24.677Z,0.70
2022-11-20T06:03:53.452Z,0.70
2022-11-20T06:06:21.349Z,0.70
2022-11-20T06:08:48.795Z,0.70
2022-11-20T06:11:17.410Z,0.70
2022-11-20T06:13:45.188Z,0.70
2022-11-20T06:16:15.525Z,0.70
2022-11-20T06:18:42.899Z,0.70
2022-11-20T06:21:20.255Z,0.70
2022-11-20T06:23:48.488Z,0.70
2022-11-20T06:26:23.617Z,0.60
2022-11-20T06:28:51.659Z,0.60
2022-11-20T06:31:22.523Z,0.70
2022-11-20T06:33:50.587Z,0.70
2022-11-20T06:36:20.638Z,0.70
2022-11-20T06:38:47.772Z,0.70
2022-11-20T06:41:18.201Z,0.80
2022-11-20T06:43:45.179Z,0.70
2022-11-20T06:46:15.022Z,0.70
2022-11-20T06:48:42.050Z,0.80
2022-11-20T06:51:09.983Z,0.80
2022-11-20T06:53:37.975Z,0.80
2022-11-20T06:56:06.627Z,0.80
2022-11-20T06:58:35.948Z,0.80
2022-11-20T07:01:07.832Z,0.70
2022-11-20T07:03:35.070Z,0.70
2022-11-20T07:06:03.146Z,0.70
2022-11-20T07:08:30.812Z,0.70
2022-11-20T07:11:03.453Z,0.70
2022-11-20T07:13:30.679Z,0.70
2022-11-20T07:16:06.189Z,0.80
2022-11-20T07:18:33.800Z,0.70
2022-11-20T07:21:11.152Z,0.70
2022-11-20T07:37:10.518Z,0.80
2022-11-20T07:39:37.573Z,1.80
2022-11-20T07:42:04.562Z,1.60
2022-11-20T07:44:31.535Z,1.60
2022-11-20T07:46:58.451Z,1.50
2022-11-20T07:49:25.352Z,1.40
2022-11-20T07:51:54.705Z,1.40
2022-11-20T07:54:23.338Z,1.30
2022-11-20T07:56:50.891Z,1.30
2022-11-20T07:59:17.813Z,1.20
2022-11-20T08:01:44.732Z,1.30
2022-11-20T08:04:12.365Z,1.30
2022-11-20T08:06:39.319Z,1.30
2022-11-20T08:09:06.325Z,1.40
2022-11-20T08:11:52.196Z,1.40
2022-11-20T08:14:19.327Z,1.30
2022-11-20T08:16:50.751Z,1.30
2022-11-20T08:19:20.439Z,1.40
2022-11-20T08:21:47.749Z,1.40
2022-11-20T08:24:14.952Z,1.40
2022-11-20T08:26:42.339Z,1.50
2022-11-20T08:29:09.440Z,1.50
2022-11-20T08:31:36.674Z,1.50
2022-11-20T08:34:08.747Z,1.60
2022-11-20T08:36:36.836Z,1.70
2022-11-20T08:39:04.631Z,1.70
2022-11-20T08:41:34.525Z,1.80
2022-11-20T08:44:04.929Z,1.90
2022-11-20T08:46:46.677Z,2.00
2022-11-20T08:49:15.178Z,2.10
2022-11-20T08:51:43.345Z,2.20
2022-11-20T08:54:10.727Z,2.30
2022-11-20T08:56:37.958Z,2.30
2022-11-20T09:01:52.018Z,2.40
2022-11-20T09:04:18.915Z,2.40
2022-11-20T09:06:45.815Z,2.30
2022-11-20T09:09:12.827Z,2.30
2022-11-20T09:11:42.150Z,2.30
2022-11-20T09:14:09.794Z,2.30
2022-11-20T09:16:36.923Z,2.20
2022-11-20T09:21:52.801Z,2.20
2022-11-20T09:24:22.634Z,2.20
2022-11-20T09:26:49.537Z,2.20
2022-11-20T09:29:16.454Z,2.30
2022-11-20T09:31:43.456Z,2.40
2022-11-20T09:34:10.992Z,2.40
2022-11-20T09:36:38.172Z,2.40
2022-11-20T09:39:05.351Z,2.50
2022-11-20T09:42:03.455Z,2.50
2022-11-20T09:45:07.441Z,2.50
2022-11-20T09:48:04.949Z,2.50
2022-11-20T09:50:43.790Z,2.50
2022-11-20T09:53:25.946Z,2.50
2022-11-20T09:55:53.470Z,2.50
2022-11-20T09:58:35.974Z,2.50
2022-11-20T10:01:30.302Z,2.50
2022-11-20T10:04:04.821Z,2.60
2022-11-20T10:07:32.668Z,2.60
2022-11-20T10:10:01.036Z,2.60
2022-11-20T10:13:23.202Z,2.60
2022-11-20T10:16:05.433Z,2.60
2022-11-20T10:18:54.231Z,2.60
2022-11-20T10:21:24.167Z,2.60
2022-11-20T10:24:35.449Z,2.60
2022-11-20T10:27:10.140Z,2.60
2022-11-20T10:29:44.703Z,2.60
2022-11-20T10:32:21.123Z,2.60
2022-11-20T10:35:41.703Z,2.60
2022-11-20T10:38:27.403Z,2.70
2022-11-20T10:41:20.476Z,2.70
2022-11-20T10:43:51.867Z,2.70
2022-11-20T10:46:23.651Z,2.70
2022-11-20T10:48:51.705Z,2.70
2022-11-20T10:51:42.863Z,2.80
2022-11-20T10:54:50.228Z,2.80
2022-11-20T10:57:40.584Z,2.70
2022-11-20T11:00:12.131Z,2.70
2022-11-20T11:03:04.252Z,2.70
2022-11-20T11:05:45.798Z,2.70
2022-11-20T11:08:18.581Z,2.80
2022-11-20T11:10:58.688Z,2.70
2022-11-20T11:13:29.328Z,2.60
2022-11-20T11:15:57.428Z,2.60
2022-11-20T11:18:29.992Z,2.60
2022-11-20T11:21:00.445Z,2.70
2022-11-20T11:23:40.119Z,2.70
2022-11-20T11:26:26.297Z,2.70
2022-11-20T11:29:04.348Z,2.70
2022-11-20T11:31:35.342Z,2.70
2022-11-20T11:34:20.402Z,2.70
2022-11-20T11:37:00.275Z,2.80
2022-11-20T11:39:31.432Z,2.70
2022-11-20T11:42:01.317Z,2.70
2022-11-20T11:44:54.197Z,2.70
2022-11-20T11:47:30.781Z,2.70
2022-11-20T11:50:10.133Z,2.70
2022-11-20T11:53:17.421Z,2.70
2022-11-20T11:55:55.985Z,2.80
2022-11-20T11:58:50.409Z,2.80
2022-11-20T12:01:52.019Z,2.70
2022-11-20T12:04:51.735Z,2.70
2022-11-20T12:07:47.311Z,2.80
2022-11-20T12:10:23.567Z,2.80
2022-11-20T12:13:02.977Z,2.80
2022-11-20T12:15:34.439Z,2.80
2022-11-20T12:18:02.399Z,2.80
2022-11-20T12:20:46.697Z,2.80
2022-11-20T12:23:39.189Z,2.80
2022-11-20T12:26:32.663Z,2.80
2022-11-20T12:29:56.701Z,2.80
2022-11-20T12:32:32.040Z,2.90
2022-11-20T12:35:23.205Z,2.90
2022-11-20T12:38:30.712Z,2.90
2022-11-20T12:41:44.533Z,2.90
2022-11-20T12:44:44.847Z,2.90
2022-11-20T12:47:49.773Z,2.90
2022-11-20T12:51:15.799Z,2.90
2022-11-20T12:54:28.462Z,2.90
2022-11-20T12:57:50.928Z,2.90
2022-11-20T13:00:23.985Z,2.90
2022-11-20T13:02:56.693Z,3.00
2022-11-20T13:05:38.237Z,2.90
2022-11-20T13:08:18.745Z,2.80
2022-11-20T13:11:13.255Z,2.80
2022-11-20T13:14:20.507Z,2.70
2022-11-20T13:17:17.771Z,2.70
2022-11-20T13:19:56.343Z,2.60
2022-11-20T13:22:44.684Z,2.50
2022-11-20T13:25:43.467Z,2.40
2022-11-20T13:28:10.373Z,2.40
2022-11-20T13:30:51.080Z,2.30
2022-11-20T13:33:37.667Z,2.30
2022-11-20T13:36:24.745Z,2.20
2022-11-20T13:38:57.264Z,2.10
2022-11-20T13:41:39.057Z,2.10
2022-11-20T13:44:27.630Z,2.10
2022-11-20T13:46:54.804Z,2.00
2022-11-20T13:49:31.920Z,2.00
2022-11-20T13:52:39.452Z,1.90
2022-11-20T13:55:27.346Z,1.90
2022-11-20T13:58:41.454Z,1.80
2022-11-20T14:01:19.028Z,1.80
2022-11-20T14:06:42.533Z,1.80
2022-11-20T14:09:26.617Z,1.70
2022-11-20T14:11:53.655Z,1.70
2022-11-20T14:14:24.429Z,1.70
2022-11-20T14:16:53.140Z,1.60
2022-11-20T14:19:29.954Z,1.60
2022-11-20T14:22:24.107Z,1.60
2022-11-20T14:25:02.859Z,1.60
2022-11-20T14:27:30.179Z,1.50
2022-11-20T14:29:57.885Z,1.50
2022-11-20T14:32:30.702Z,1.50
2022-11-20T14:35:08.613Z,1.40
2022-11-20T14:37:40.399Z,1.40
2022-11-20T14:40:36.576Z,1.40
2022-11-20T14:43:28.219Z,1.40
2022-11-20T14:46:10.931Z,1.30
2022-11-20T14:48:51.884Z,1.30
2022-11-20T14:51:35.777Z,1.30
2022-11-20T14:54:16.335Z,1.20
2022-11-20T14:56:58.469Z,1.30
2022-11-20T14:59:28.409Z,1.30
2022-11-20T15:02:04.231Z,1.30
2022-11-20T15:04:31.698Z,1.20
2022-11-20T15:07:00.970Z,1.30
2022-11-20T15:09:27.964Z,1.30
2022-11-20T15:12:02.407Z,1.20
2022-11-20T15:14:33.581Z,1.30
2022-11-20T15:17:00.858Z,1.30
2022-11-20T15:19:31.726Z,1.20
2022-11-20T15:21:58.686Z,1.30
2022-11-20T15:24:26.090Z,1.30
2022-11-20T15:26:53.371Z,1.30
2022-11-20T15:29:22.727Z,1.30
2022-11-20T15:31:51.957Z,1.20
2022-11-20T15:34:19.816Z,1.30
2022-11-20T15:36:47.033Z,1.30
2022-11-20T15:39:14.361Z,1.30
2022-11-20T15:41:42.862Z,1.30
2022-11-20T15:44:11.885Z,1.30
2022-11-20T15:46:45.872Z,1.40
2022-11-20T15:49:16.973Z,1.40
2022-11-20T15:51:50.567Z,1.40
2022-11-20T15:54:23.708Z,1.40
2022-11-20T15:56:54.611Z,1.40
2022-11-20T15:59:21.889Z,1.50
2022-11-20T16:01:48.936Z,1.50
2022-11-20T16:04:17.770Z,1.50
2022-11-20T16:06:44.876Z,1.50
2022-11-20T16:09:11.982Z,1.50
2022-11-20T16:11:39.488Z,1.50
2022-11-20T16:14:26.279Z,1.50
2022-11-20T16:16:53.662Z,1.50
2022-11-20T16:19:20.915Z,1.50
2022-11-20T16:21:48.033Z,1.50
2022-11-20T16:24:16.869Z,1.60
2022-11-20T16:26:43.839Z,1.60
2022-11-20T16:29:12.332Z,1.60
2022-11-20T16:31:39.531Z,1.60
2022-11-20T16:34:12.267Z,1.70
2022-11-20T16:36:45.839Z,1.70
2022-11-20T16:39:14.426Z,1.70
2022-11-20T16:41:42.755Z,1.70
2022-11-20T16:44:11.720Z,1.80
2022-11-20T16:46:41.008Z,1.80
2022-11-20T16:49:13.950Z,1.80
2022-11-20T16:51:41.877Z,1.80
2022-11-20T16:54:10.741Z,1.80
2022-11-20T16:56:40.671Z,1.80
2022-11-20T16:59:07.716Z,1.80
2022-11-20T17:01:38.644Z,1.90
2022-11-20T17:04:07.169Z,1.90
2022-11-20T17:06:41.463Z,1.90
2022-11-20T17:09:11.314Z,1.90
2022-11-20T17:11:38.500Z,1.90
2022-11-20T17:14:09.867Z,1.90
2022-11-20T17:16:37.935Z,1.90
2022-11-20T17:19:05.378Z,1.90
2022-11-20T17:21:37.919Z,1.90
2022-11-20T17:24:09.212Z,1.90
2022-11-20T17:26:38.385Z,2.00
2022-11-20T17:29:11.282Z,2.00
2022-11-20T17:31:39.436Z,2.00
2022-11-20T17:34:10.940Z,1.90
2022-11-20T17:36:44.869Z,1.90
2022-11-20T17:39:17.290Z,1.90
2022-11-20T17:41:45.348Z,1.90
2022-11-20T17:44:13.567Z,1.90
2022-11-20T17:46:40.717Z,1.90
2022-11-20T17:49:07.821Z,1.80
2022-11-20T17:51:35.384Z,1.70
2022-11-20T17:54:07.558Z,1.70
2022-11-20T17:56:54.483Z,1.70
2022-11-20T17:59:22.076Z,1.70
2022-11-20T18:01:49.336Z,1.70
2022-11-20T18:04:17.310Z,1.70
2022-11-20T18:06:44.590Z,1.70
2022-11-20T18:09:12.671Z,1.70
2022-11-20T18:11:42.222Z,1.70
2022-11-20T18:14:36.661Z,1.60
2022-11-20T18:17:11.116Z,1.60
2022-11-20T18:20:01.032Z,1.60
2022-11-20T18:22:33.741Z,1.60
2022-11-20T18:25:00.789Z,1.60
2022-11-20T18:27:29.003Z,1.60
2022-11-20T18:30:00.489Z,1.70
2022-11-20T18:32:29.350Z,1.60
2022-11-20T18:34:56.659Z,1.70
2022-11-20T18:37:23.676Z,1.70
2022-11-20T18:39:50.724Z,1.60
2022-11-20T18:42:37.223Z,1.60
2022-11-20T18:45:05.897Z,1.60
2022-11-20T18:47:37.927Z,1.60
2022-11-20T18:50:08.133Z,1.60
2022-11-20T18:52:41.976Z,1.50
2022-11-20T18:55:10.384Z,1.60
2022-11-20T18:57:37.366Z,1.60
2022-11-20T19:00:09.408Z,1.60
2022-11-20T19:02:41.472Z,1.50
2022-11-20T19:05:11.560Z,1.60
2022-11-20T19:07:38.591Z,1.50
2022-11-20T19:10:06.613Z,1.50
2022-11-20T19:12:33.611Z,1.50
2022-11-20T19:15:00.632Z,1.50
2022-11-20T19:17:27.598Z,1.50
2022-11-20T19:19:55.202Z,1.50
2022-11-20T19:22:22.516Z,1.50
2022-11-20T19:24:49.718Z,1.40
2022-11-20T19:27:16.921Z,1.40
2022-11-20T19:29:45.461Z,1.40
2022-11-20T19:32:12.647Z,1.50
2022-11-20T19:34:39.681Z,1.50
2022-11-20T19:37:07.958Z,1.50
2022-11-20T19:39:36.519Z,1.60
2022-11-20T19:42:03.704Z,1.60
2022-11-20T19:44:32.257Z,1.50
2022-11-20T19:46:59.522Z,1.50
2022-11-20T19:49:26.708Z,1.50
2022-11-20T19:51:53.775Z,1.50
2022-11-20T19:54:20.824Z,1.40
2022-11-20T20:10:12.542Z,1.40
2022-11-20T20:12:39.490Z,2.10
2022-11-20T20:15:10.113Z,1.90
2022-11-20T20:17:37.159Z,1.80
2022-11-20T20:20:04.778Z,1.70
2022-11-20T20:22:31.775Z,1.70
2022-11-20T20:24:58.707Z,1.70
2022-11-20T20:27:25.654Z,1.50
2022-11-20T20:29:52.560Z,1.40
2022-11-20T20:32:19.534Z,1.40
2022-11-20T20:34:46.509Z,1.30
2022-11-20T20:37:13.495Z,1.40
2022-11-20T20:39:41.447Z,1.30
2022-11-20T20:42:09.255Z,1.30
2022-11-20T20:44:55.165Z,1.30
2022-11-20T20:47:22.230Z,1.30
2022-11-20T20:49:49.434Z,1.30
2022-11-20T20:52:16.646Z,1.30
2022-11-20T20:54:43.641Z,1.20
2022-11-20T20:57:10.731Z,1.20
2022-11-20T20:59:37.791Z,1.20
2022-11-20T21:02:05.502Z,1.10
2022-11-20T21:04:32.557Z,1.10
2022-11-20T21:06:59.578Z,1.10
2022-11-20T21:09:26.618Z,1.10
2022-11-20T21:11:53.609Z,1.10
2022-11-20T21:14:20.930Z,1.20
2022-11-20T21:16:48.091Z,1.20
2022-11-20T21:19:15.324Z,1.20
2022-11-20T21:22:00.702Z,1.20
2022-11-20T21:24:33.813Z,1.20
2022-11-20T21:27:03.529Z,1.30
2022-11-20T21:29:31.129Z,1.20
2022-11-20T21:32:00.792Z,1.30
2022-11-20T21:34:27.968Z,1.30
2022-11-20T21:36:55.362Z,1.40
2022-11-20T21:39:22.921Z,1.30
2022-11-20T21:41:51.178Z,1.30
2022-11-20T21:44:34.084Z,1.30
2022-11-20T21:47:01.749Z,1.30
2022-11-20T21:49:29.576Z,1.30
2022-11-20T21:51:57.098Z,1.30
2022-11-20T21:54:24.445Z,1.30
2022-11-20T21:56:51.899Z,1.30
2022-11-20T21:59:18.853Z,1.30
2022-11-20T22:01:45.928Z,1.30
2022-11-20T22:04:14.889Z,1.30
2022-11-20T22:06:42.167Z,1.30
2022-11-20T22:09:13.483Z,1.20
2022-11-20T22:11:43.407Z,1.30
2022-11-20T22:14:20.329Z,1.30
2022-11-20T22:16:49.549Z,1.20
2022-11-20T22:19:19.133Z,1.20
2022-11-20T22:21:46.655Z,1.20
2022-11-20T22:24:17.609Z,1.20
2022-11-20T22:26:44.860Z,1.30
2022-11-20T22:29:18.989Z,1.30
2022-11-20T22:31:45.967Z,1.30
2022-11-20T22:34:14.034Z,1.20
2022-11-20T22:36:41.940Z,1.30
2022-11-20T22:39:09.442Z,1.30
2022-11-20T22:41:36.607Z,1.20
2022-11-20T22:44:07.657Z,1.20
2022-11-20T22:46:37.352Z,1.30
2022-11-20T22:49:08.664Z,1.30
2022-11-20T22:51:40.078Z,1.30
2022-11-20T22:54:09.422Z,1.30
2022-11-20T22:56:36.305Z,1.30
2022-11-20T22:59:04.161Z,1.30
2022-11-20T23:01:34.513Z,1.20
2022-11-20T23:04:05.836Z,1.30
2022-11-20T23:06:34.379Z,1.30
2022-11-20T23:09:02.979Z,1.30
2022-11-20T23:11:31.952Z,1.30
2022-11-20T23:14:10.945Z,1.20
2022-11-20T23:16:37.998Z,1.30
2022-11-20T23:19:08.241Z,1.20
2022-11-20T23:21:37.702Z,1.20
2022-11-20T23:24:05.917Z,1.20
2022-11-20T23:26:36.864Z,1.20
2022-11-20T23:29:05.997Z,1.20
2022-11-20T23:31:35.744Z,1.30
2022-11-20T23:34:02.955Z,1.30
2022-11-20T23:36:30.431Z,1.30
2022-11-20T23:38:57.502Z,1.30
2022-11-20T23:41:24.512Z,1.40
2022-11-20T23:43:52.906Z,1.30
2022-11-20T23:46:20.244Z,1.30
2022-11-20T23:48:47.193Z,1.30
2022-11-20T23:51:14.848Z,1.30
2022-11-20T23:53:42.308Z,1.30
2022-11-20T23:56:10.511Z,1.30
